sensor_id;sensor_type;location;lat;lon;timestamp;temperature;humidity
21678;DHT22;11000;50.360;7.582;2022-11-03T00:00:35;9.50;99.90
21678;DHT22;11000;50.360;7.582;2022-11-03T00:02:56;9.50;99.90
21678;DHT22;11000;50.360;7.582;2022-11-03T00:05:16;9.60;99.90
21678;DHT22;11000;50.360;7.582;2022-11-03T00:07:55;9.70;99.90
21678;DHT22;11000;50.360;7.582;2022-11-03T00:10:16;9.60;99.90
21678;DHT22;11000;50.360;7.582;2022-11-03T00:12:36;9.60;99.90
21678;DHT22;11000;50.360;7.582;2022-11-03T00:14:57;9.70;99.90
21678;DHT22;11000;50.360;7.582;2022-11-03T00:17:18;9.70;99.90
21678;DHT22;11000;50.360;7.582;2022-11-03T00:19:38;9.80;99.90
21678;DHT22;11000;50.360;7.582;2022-11-03T00:21:59;9.90;99.90
21678;DHT22;11000;50.360;7.582;2022-11-03T00:24:19;10.00;99.90
21678;DHT22;11000;50.360;7.582;2022-11-03T00:26:40;10.10;99.90
21678;DHT22;11000;50.360;7.582;2022-11-03T00:29:06;10.10;99.90
21678;DHT22;11000;50.360;7.582;2022-11-03T00:31:29;10.10;99.90
21678;DHT22;11000;50.360;7.582;2022-11-03T00:33:50;10.10;99.90
21678;DHT22;11000;50.360;7.582;2022-11-03T00:36:16;10.10;99.90
21678;DHT22;11000;50.360;7.582;2022-11-03T00:38:36;10.10;99.90
21678;DHT22;11000;50.360;7.582;2022-11-03T00:40:59;10.10;99.90
21678;DHT22;11000;50.360;7.582;2022-11-03T00:43:24;10.10;99.90
21678;DHT22;11000;50.360;7.582;2022-11-03T00:45:44;10.10;99.90
21678;DHT22;11000;50.360;7.582;2022-11-03T00:48:05;10.10;99.90
21678;DHT22;11000;50.360;7.582;2022-11-03T00:50:44;10.00;99.90
21678;DHT22;11000;50.360;7.582;2022-11-03T00:53:04;9.90;99.90
21678;DHT22;11000;50.360;7.582;2022-11-03T00:55:25;9.90;99.90
21678;DHT22;11000;50.360;7.582;2022-11-03T00:57:45;9.80;99.90
21678;DHT22;11000;50.360;7.582;2022-11-03T01:00:06;9.80;99.90
21678;DHT22;11000;50.360;7.582;2022-11-03T01:02:27;9.90;99.90
21678;DHT22;11000;50.360;7.582;2022-11-03T01:04:47;9.80;99.90
21678;DHT22;11000;50.360;7.582;2022-11-03T01:07:28;9.90;99.90
21678;DHT22;11000;50.360;7.582;2022-11-03T01:09:49;9.90;99.90
21678;DHT22;11000;50.360;7.582;2022-11-03T01:12:15;9.90;99.90
21678;DHT22;11000;50.360;7.582;2022-11-03T01:14:48;9.90;99.90
21678;DHT22;11000;50.360;7.582;2022-11-03T01:17:14;9.90;99.90
21678;DHT22;11000;50.360;7.582;2022-11-03T01:19:35;9.90;99.90
21678;DHT22;11000;50.360;7.582;2022-11-03T01:21:56;9.90;99.90
21678;DHT22;11000;50.360;7.582;2022-11-03T01:24:16;9.90;99.90
21678;DHT22;11000;50.360;7.582;2022-11-03T01:26:37;9.90;99.90
21678;DHT22;11000;50.360;7.582;2022-11-03T01:28:59;9.90;99.90
21678;DHT22;11000;50.360;7.582;2022-11-03T01:31:22;9.90;99.90
21678;DHT22;11000;50.360;7.582;2022-11-03T01:33:44;10.00;99.90
21678;DHT22;11000;50.360;7.582;2022-11-03T01:36:05;10.00;99.90
21678;DHT22;11000;50.360;7.582;2022-11-03T01:38:30;9.90;99.90
21678;DHT22;11000;50.360;7.582;2022-11-03T01:40:51;10.00;99.90
21678;DHT22;11000;50.360;7.582;2022-11-03T01:43:22;10.00;99.90
21678;DHT22;11000;50.360;7.582;2022-11-03T01:45:44;10.10;99.90
21678;DHT22;11000;50.360;7.582;2022-11-03T01:48:07;10.10;99.90
21678;DHT22;11000;50.360;7.582;2022-11-03T01:50:28;10.10;99.90
21678;DHT22;11000;50.360;7.582;2022-11-03T01:52:54;10.10;99.90
21678;DHT22;11000;50.360;7.582;2022-11-03T01:55:19;10.10;99.90
21678;DHT22;11000;50.360;7.582;2022-11-03T01:57:50;10.10;99.90
21678;DHT22;11000;50.360;7.582;2022-11-03T02:00:14;10.20;99.90
21678;DHT22;11000;50.360;7.582;2022-11-03T02:02:36;10.20;99.90
21678;DHT22;11000;50.360;7.582;2022-11-03T02:04:59;10.20;99.90
21678;DHT22;11000;50.360;7.582;2022-11-03T02:07:24;10.20;99.90
21678;DHT22;11000;50.360;7.582;2022-11-03T02:09:45;10.20;99.90
21678;DHT22;11000;50.360;7.582;2022-11-03T02:12:07;10.20;99.90
21678;DHT22;11000;50.360;7.582;2022-11-03T02:14:28;10.20;99.90
21678;DHT22;11000;50.360;7.582;2022-11-03T02:16:52;10.20;99.90
21678;DHT22;11000;50.360;7.582;2022-11-03T02:24:52;10.20;99.90
21678;DHT22;11000;50.360;7.582;2022-11-03T02:27:13;10.30;99.90
21678;DHT22;11000;50.360;7.582;2022-11-03T02:29:34;10.20;99.90
21678;DHT22;11000;50.360;7.582;2022-11-03T02:32:06;10.10;99.90
21678;DHT22;11000;50.360;7.582;2022-11-03T02:37:24;10.10;99.90
21678;DHT22;11000;50.360;7.582;2022-11-03T02:39:53;10.10;99.90
21678;DHT22;11000;50.360;7.582;2022-11-03T02:42:17;10.10;99.90
21678;DHT22;11000;50.360;7.582;2022-11-03T02:44:39;10.10;99.90
21678;DHT22;11000;50.360;7.582;2022-11-03T02:47:05;10.00;99.90
21678;DHT22;11000;50.360;7.582;2022-11-03T02:49:26;10.10;99.90
21678;DHT22;11000;50.360;7.582;2022-11-03T02:51:47;10.20;99.90
21678;DHT22;11000;50.360;7.582;2022-11-03T02:54:21;10.10;99.90
21678;DHT22;11000;50.360;7.582;2022-11-03T02:56:49;10.10;99.90
21678;DHT22;11000;50.360;7.582;2022-11-03T02:59:14;10.20;99.90
21678;DHT22;11000;50.360;7.582;2022-11-03T03:01:38;10.10;99.90
21678;DHT22;11000;50.360;7.582;2022-11-03T03:04:08;10.10;99.90
21678;DHT22;11000;50.360;7.582;2022-11-03T03:06:38;10.10;99.90
21678;DHT22;11000;50.360;7.582;2022-11-03T03:09:05;10.10;99.90
21678;DHT22;11000;50.360;7.582;2022-11-03T03:11:26;10.10;99.90
21678;DHT22;11000;50.360;7.582;2022-11-03T03:13:56;10.10;99.90
21678;DHT22;11000;50.360;7.582;2022-11-03T03:16:22;10.00;99.90
21678;DHT22;11000;50.360;7.582;2022-11-03T03:18:55;10.00;99.90
21678;DHT22;11000;50.360;7.582;2022-11-03T03:21:22;10.00;99.90
21678;DHT22;11000;50.360;7.582;2022-11-03T03:24:01;10.00;99.90
21678;DHT22;11000;50.360;7.582;2022-11-03T03:26:28;10.00;99.90
21678;DHT22;11000;50.360;7.582;2022-11-03T03:29:00;10.00;99.90
21678;DHT22;11000;50.360;7.582;2022-11-03T03:31:25;10.00;99.90
21678;DHT22;11000;50.360;7.582;2022-11-03T03:33:48;9.90;99.90
21678;DHT22;11000;50.360;7.582;2022-11-03T03:36:13;9.90;99.90
21678;DHT22;11000;50.360;7.582;2022-11-03T03:38:43;10.00;99.90
21678;DHT22;11000;50.360;7.582;2022-11-03T03:41:07;9.90;99.90
21678;DHT22;11000;50.360;7.582;2022-11-03T03:43:31;9.90;99.90
21678;DHT22;11000;50.360;7.582;2022-11-03T03:45:56;9.90;99.90
21678;DHT22;11000;50.360;7.582;2022-11-03T03:48:17;9.90;99.90
21678;DHT22;11000;50.360;7.582;2022-11-03T03:50:39;9.80;99.90
21678;DHT22;11000;50.360;7.582;2022-11-03T03:53:06;9.80;99.90
21678;DHT22;11000;50.360;7.582;2022-11-03T03:55:38;9.80;99.90
21678;DHT22;11000;50.360;7.582;2022-11-03T03:57:59;9.70;99.90
21678;DHT22;11000;50.360;7.582;2022-11-03T04:00:20;9.60;99.90
21678;DHT22;11000;50.360;7.582;2022-11-03T04:02:41;9.60;99.90
21678;DHT22;11000;50.360;7.582;2022-11-03T04:05:02;9.60;99.90
21678;DHT22;11000;50.360;7.582;2022-11-03T04:07:22;9.50;99.90
21678;DHT22;11000;50.360;7.582;2022-11-03T04:10:01;9.50;99.90
21678;DHT22;11000;50.360;7.582;2022-11-03T04:12:22;9.50;99.90
21678;DHT22;11000;50.360;7.582;2022-11-03T04:15:01;9.50;99.90
21678;DHT22;11000;50.360;7.582;2022-11-03T04:17:43;9.50;99.90
21678;DHT22;11000;50.360;7.582;2022-11-03T04:20:22;9.40;99.90
21678;DHT22;11000;50.360;7.582;2022-11-03T04:23:02;9.50;99.90
21678;DHT22;11000;50.360;7.582;2022-11-03T04:25:23;9.40;99.90
21678;DHT22;11000;50.360;7.582;2022-11-03T04:27:43;9.40;99.90
21678;DHT22;11000;50.360;7.582;2022-11-03T04:30:17;9.40;99.90
21678;DHT22;11000;50.360;7.582;2022-11-03T04:32:38;9.40;99.90
21678;DHT22;11000;50.360;7.582;2022-11-03T04:34:59;9.40;99.90
21678;DHT22;11000;50.360;7.582;2022-11-03T04:37:19;9.40;99.90
21678;DHT22;11000;50.360;7.582;2022-11-03T04:39:40;9.30;99.90
21678;DHT22;11000;50.360;7.582;2022-11-03T04:42:01;9.30;99.90
21678;DHT22;11000;50.360;7.582;2022-11-03T04:44:21;9.30;99.90
21678;DHT22;11000;50.360;7.582;2022-11-03T04:46:43;9.20;99.90
21678;DHT22;11000;50.360;7.582;2022-11-03T04:49:06;9.20;99.90
21678;DHT22;11000;50.360;7.582;2022-11-03T04:51:32;9.10;99.90
21678;DHT22;11000;50.360;7.582;2022-11-03T04:53:57;9.10;99.90
21678;DHT22;11000;50.360;7.582;2022-11-03T04:56:21;9.10;99.90
21678;DHT22;11000;50.360;7.582;2022-11-03T04:58:42;9.00;99.90
21678;DHT22;11000;50.360;7.582;2022-11-03T05:01:03;8.90;99.90
21678;DHT22;11000;50.360;7.582;2022-11-03T05:03:30;9.00;99.90
21678;DHT22;11000;50.360;7.582;2022-11-03T05:05:51;9.10;99.90
21678;DHT22;11000;50.360;7.582;2022-11-03T05:08:12;9.00;99.90
21678;DHT22;11000;50.360;7.582;2022-11-03T05:10:33;9.00;99.90
21678;DHT22;11000;50.360;7.582;2022-11-03T05:12:55;9.00;99.90
21678;DHT22;11000;50.360;7.582;2022-11-03T05:15:37;9.00;99.90
21678;DHT22;11000;50.360;7.582;2022-11-03T05:18:01;8.90;99.90
21678;DHT22;11000;50.360;7.582;2022-11-03T05:20:39;8.90;99.90
21678;DHT22;11000;50.360;7.582;2022-11-03T05:23:01;8.80;99.90
21678;DHT22;11000;50.360;7.582;2022-11-03T05:25:45;8.90;99.90
21678;DHT22;11000;50.360;7.582;2022-11-03T05:28:56;8.90;99.90
21678;DHT22;11000;50.360;7.582;2022-11-03T05:30:57;8.90;99.90
21678;DHT22;11000;50.360;7.582;2022-11-03T05:35:40;8.90;99.90
21678;DHT22;11000;50.360;7.582;2022-11-03T05:38:01;8.90;99.90
21678;DHT22;11000;50.360;7.582;2022-11-03T05:40:25;8.90;99.90
21678;DHT22;11000;50.360;7.582;2022-11-03T05:42:54;8.90;99.90
21678;DHT22;11000;50.360;7.582;2022-11-03T05:45:28;8.90;99.90
21678;DHT22;11000;50.360;7.582;2022-11-03T05:47:53;8.90;99.90
21678;DHT22;11000;50.360;7.582;2022-11-03T05:50:25;8.80;99.90
21678;DHT22;11000;50.360;7.582;2022-11-03T05:52:49;8.80;99.90
21678;DHT22;11000;50.360;7.582;2022-11-03T05:55:27;8.80;99.90
21678;DHT22;11000;50.360;7.582;2022-11-03T05:57:49;8.80;99.90
21678;DHT22;11000;50.360;7.582;2022-11-03T06:00:28;8.80;99.90
21678;DHT22;11000;50.360;7.582;2022-11-03T06:02:48;8.80;99.90
21678;DHT22;11000;50.360;7.582;2022-11-03T06:05:22;8.80;99.90
21678;DHT22;11000;50.360;7.582;2022-11-03T06:07:43;8.80;99.90
21678;DHT22;11000;50.360;7.582;2022-11-03T06:10:25;8.80;99.90
21678;DHT22;11000;50.360;7.582;2022-11-03T06:12:46;8.80;99.90
21678;DHT22;11000;50.360;7.582;2022-11-03T06:15:21;8.80;99.90
21678;DHT22;11000;50.360;7.582;2022-11-03T06:17:43;8.90;99.90
21678;DHT22;11000;50.360;7.582;2022-11-03T06:20:08;9.00;99.90
21678;DHT22;11000;50.360;7.582;2022-11-03T06:22:36;9.00;99.90
21678;DHT22;11000;50.360;7.582;2022-11-03T06:27:40;9.00;99.90
21678;DHT22;11000;50.360;7.582;2022-11-03T06:32:38;9.00;99.90
21678;DHT22;11000;50.360;7.582;2022-11-03T06:34:59;9.00;99.90
21678;DHT22;11000;50.360;7.582;2022-11-03T06:37:30;9.00;99.90
21678;DHT22;11000;50.360;7.582;2022-11-03T06:39:58;9.00;99.90
21678;DHT22;11000;50.360;7.582;2022-11-03T06:42:20;9.10;99.90
21678;DHT22;11000;50.360;7.582;2022-11-03T06:44:43;9.10;99.90
21678;DHT22;11000;50.360;7.582;2022-11-03T06:47:22;9.10;99.90
21678;DHT22;11000;50.360;7.582;2022-11-03T06:49:43;9.20;99.90
21678;DHT22;11000;50.360;7.582;2022-11-03T06:52:26;9.30;99.90
21678;DHT22;11000;50.360;7.582;2022-11-03T06:54:49;9.30;99.90
21678;DHT22;11000;50.360;7.582;2022-11-03T06:57:13;9.30;99.90
21678;DHT22;11000;50.360;7.582;2022-11-03T06:59:34;9.30;99.90
21678;DHT22;11000;50.360;7.582;2022-11-03T07:01:55;9.30;99.90
21678;DHT22;11000;50.360;7.582;2022-11-03T07:04:24;9.20;99.90
21678;DHT22;11000;50.360;7.582;2022-11-03T07:06:47;9.20;99.90
21678;DHT22;11000;50.360;7.582;2022-11-03T07:09:15;9.10;99.90
21678;DHT22;11000;50.360;7.582;2022-11-03T07:11:48;9.20;99.90
21678;DHT22;11000;50.360;7.582;2022-11-03T07:16:34;9.20;99.90
21678;DHT22;11000;50.360;7.582;2022-11-03T07:18:58;9.20;99.90
21678;DHT22;11000;50.360;7.582;2022-11-03T07:21:36;9.20;99.90
21678;DHT22;11000;50.360;7.582;2022-11-03T07:24:03;9.20;99.90
21678;DHT22;11000;50.360;7.582;2022-11-03T07:26:26;9.30;99.90
21678;DHT22;11000;50.360;7.582;2022-11-03T07:28:47;9.20;99.90
21678;DHT22;11000;50.360;7.582;2022-11-03T07:31:15;9.20;99.90
21678;DHT22;11000;50.360;7.582;2022-11-03T07:33:44;9.10;99.90
21678;DHT22;11000;50.360;7.582;2022-11-03T07:36:06;9.10;99.90
21678;DHT22;11000;50.360;7.582;2022-11-03T07:38:28;9.00;99.90
21678;DHT22;11000;50.360;7.582;2022-11-03T07:40:52;9.00;99.90
21678;DHT22;11000;50.360;7.582;2022-11-03T07:43:21;9.00;99.90
21678;DHT22;11000;50.360;7.582;2022-11-03T07:45:51;9.10;99.90
21678;DHT22;11000;50.360;7.582;2022-11-03T07:50:40;9.30;99.90
21678;DHT22;11000;50.360;7.582;2022-11-03T07:53:04;9.30;99.90
21678;DHT22;11000;50.360;7.582;2022-11-03T07:55:28;9.40;99.90
21678;DHT22;11000;50.360;7.582;2022-11-03T07:57:49;9.40;99.90
21678;DHT22;11000;50.360;7.582;2022-11-03T08:00:14;9.50;99.90
21678;DHT22;11000;50.360;7.582;2022-11-03T08:05:04;9.80;99.90
21678;DHT22;11000;50.360;7.582;2022-11-03T08:07:26;9.80;99.90
21678;DHT22;11000;50.360;7.582;2022-11-03T08:09:50;9.90;99.90
21678;DHT22;11000;50.360;7.582;2022-11-03T08:12:10;10.00;99.90
21678;DHT22;11000;50.360;7.582;2022-11-03T08:14:32;10.10;99.90
21678;DHT22;11000;50.360;7.582;2022-11-03T08:16:53;10.20;99.90
21678;DHT22;11000;50.360;7.582;2022-11-03T08:19:14;10.30;99.90
21678;DHT22;11000;50.360;7.582;2022-11-03T08:21:34;10.40;99.90
21678;DHT22;11000;50.360;7.582;2022-11-03T08:23:55;10.60;99.90
21678;DHT22;11000;50.360;7.582;2022-11-03T08:26:15;10.80;99.90
21678;DHT22;11000;50.360;7.582;2022-11-03T08:28:36;10.90;99.90
21678;DHT22;11000;50.360;7.582;2022-11-03T08:30:57;10.90;99.90
21678;DHT22;11000;50.360;7.582;2022-11-03T08:33:20;11.00;99.90
21678;DHT22;11000;50.360;7.582;2022-11-03T08:35:41;11.00;99.90
21678;DHT22;11000;50.360;7.582;2022-11-03T08:38:01;11.20;99.90
21678;DHT22;11000;50.360;7.582;2022-11-03T08:40:22;11.20;99.90
21678;DHT22;11000;50.360;7.582;2022-11-03T08:42:43;11.30;99.90
21678;DHT22;11000;50.360;7.582;2022-11-03T08:45:04;11.40;99.90
21678;DHT22;11000;50.360;7.582;2022-11-03T08:47:24;11.50;99.90
21678;DHT22;11000;50.360;7.582;2022-11-03T08:49:45;11.60;99.90
21678;DHT22;11000;50.360;7.582;2022-11-03T08:52:05;11.60;99.90
21678;DHT22;11000;50.360;7.582;2022-11-03T08:54:26;11.70;99.90
21678;DHT22;11000;50.360;7.582;2022-11-03T08:56:47;11.70;99.90
21678;DHT22;11000;50.360;7.582;2022-11-03T08:59:08;11.70;99.90
21678;DHT22;11000;50.360;7.582;2022-11-03T09:01:29;11.70;99.90
21678;DHT22;11000;50.360;7.582;2022-11-03T09:03:49;11.70;99.90
21678;DHT22;11000;50.360;7.582;2022-11-03T09:06:10;11.80;99.90
21678;DHT22;11000;50.360;7.582;2022-11-03T09:08:30;11.80;99.90
21678;DHT22;11000;50.360;7.582;2022-11-03T09:10:51;11.90;99.90
21678;DHT22;11000;50.360;7.582;2022-11-03T09:13:11;11.90;99.90
21678;DHT22;11000;50.360;7.582;2022-11-03T09:15:32;11.90;99.90
21678;DHT22;11000;50.360;7.582;2022-11-03T09:17:53;11.90;99.90
21678;DHT22;11000;50.360;7.582;2022-11-03T09:20:13;12.00;99.90
21678;DHT22;11000;50.360;7.582;2022-11-03T09:22:34;12.00;99.90
21678;DHT22;11000;50.360;7.582;2022-11-03T09:24:55;12.00;99.90
21678;DHT22;11000;50.360;7.582;2022-11-03T09:27:16;12.00;99.90
21678;DHT22;11000;50.360;7.582;2022-11-03T09:29:36;12.10;99.90
21678;DHT22;11000;50.360;7.582;2022-11-03T09:31:57;12.10;99.90
21678;DHT22;11000;50.360;7.582;2022-11-03T09:34:18;12.00;99.90
21678;DHT22;11000;50.360;7.582;2022-11-03T09:36:38;12.00;99.90
21678;DHT22;11000;50.360;7.582;2022-11-03T09:38:59;12.20;99.90
21678;DHT22;11000;50.360;7.582;2022-11-03T09:41:20;12.10;99.90
21678;DHT22;11000;50.360;7.582;2022-11-03T09:43:40;12.00;99.90
21678;DHT22;11000;50.360;7.582;2022-11-03T09:46:01;12.10;99.90
21678;DHT22;11000;50.360;7.582;2022-11-03T09:48:21;12.20;99.90
21678;DHT22;11000;50.360;7.582;2022-11-03T09:50:42;12.30;99.90
21678;DHT22;11000;50.360;7.582;2022-11-03T09:53:03;12.40;99.90
21678;DHT22;11000;50.360;7.582;2022-11-03T09:55:25;12.50;99.90
21678;DHT22;11000;50.360;7.582;2022-11-03T09:57:46;12.50;99.90
21678;DHT22;11000;50.360;7.582;2022-11-03T10:00:14;12.50;99.90
21678;DHT22;11000;50.360;7.582;2022-11-03T10:02:35;12.40;99.90
21678;DHT22;11000;50.360;7.582;2022-11-03T10:04:58;12.30;99.90
21678;DHT22;11000;50.360;7.582;2022-11-03T10:07:20;12.30;99.90
21678;DHT22;11000;50.360;7.582;2022-11-03T10:09:45;12.30;99.90
21678;DHT22;11000;50.360;7.582;2022-11-03T10:12:08;12.20;99.90
21678;DHT22;11000;50.360;7.582;2022-11-03T10:14:29;12.20;99.90
21678;DHT22;11000;50.360;7.582;2022-11-03T10:16:57;12.40;99.90
21678;DHT22;11000;50.360;7.582;2022-11-03T10:19:22;12.30;99.90
21678;DHT22;11000;50.360;7.582;2022-11-03T10:21:43;12.40;99.90
21678;DHT22;11000;50.360;7.582;2022-11-03T10:24:04;12.40;99.90
21678;DHT22;11000;50.360;7.582;2022-11-03T10:26:24;12.40;99.90
21678;DHT22;11000;50.360;7.582;2022-11-03T10:29:01;12.50;99.90
21678;DHT22;11000;50.360;7.582;2022-11-03T10:31:39;12.50;99.90
21678;DHT22;11000;50.360;7.582;2022-11-03T10:34:00;12.40;99.90
21678;DHT22;11000;50.360;7.582;2022-11-03T10:36:23;12.40;99.90
21678;DHT22;11000;50.360;7.582;2022-11-03T10:38:45;12.50;99.90
21678;DHT22;11000;50.360;7.582;2022-11-03T10:41:24;12.50;99.90
21678;DHT22;11000;50.360;7.582;2022-11-03T10:44:17;12.50;99.90
21678;DHT22;11000;50.360;7.582;2022-11-03T10:46:39;12.50;99.90
21678;DHT22;11000;50.360;7.582;2022-11-03T10:51:22;12.70;99.90
21678;DHT22;11000;50.360;7.582;2022-11-03T10:53:42;12.80;99.90
21678;DHT22;11000;50.360;7.582;2022-11-03T10:56:03;12.80;99.90
21678;DHT22;11000;50.360;7.582;2022-11-03T10:58:24;12.80;99.90
21678;DHT22;11000;50.360;7.582;2022-11-03T11:00:45;12.80;99.90
21678;DHT22;11000;50.360;7.582;2022-11-03T11:03:05;12.80;99.90
21678;DHT22;11000;50.360;7.582;2022-11-03T11:05:26;12.80;99.90
21678;DHT22;11000;50.360;7.582;2022-11-03T11:07:48;12.80;99.90
21678;DHT22;11000;50.360;7.582;2022-11-03T11:10:15;12.80;99.90
21678;DHT22;11000;50.360;7.582;2022-11-03T11:12:37;12.80;99.90
21678;DHT22;11000;50.360;7.582;2022-11-03T11:14:59;12.70;99.90
21678;DHT22;11000;50.360;7.582;2022-11-03T11:17:41;12.80;99.90
21678;DHT22;11000;50.360;7.582;2022-11-03T11:22:38;12.60;99.90
21678;DHT22;11000;50.360;7.582;2022-11-03T11:24:59;12.70;99.90
21678;DHT22;11000;50.360;7.582;2022-11-03T11:29:56;12.60;99.90
21678;DHT22;11000;50.360;7.582;2022-11-03T11:34:59;12.60;99.90
21678;DHT22;11000;50.360;7.582;2022-11-03T11:52:26;12.80;99.90
21678;DHT22;11000;50.360;7.582;2022-11-03T11:54:47;12.90;99.90
21678;DHT22;11000;50.360;7.582;2022-11-03T11:57:19;12.90;99.90
21678;DHT22;11000;50.360;7.582;2022-11-03T11:59:44;12.90;99.90
21678;DHT22;11000;50.360;7.582;2022-11-03T12:02:17;12.90;99.90
21678;DHT22;11000;50.360;7.582;2022-11-03T12:04:38;13.00;99.90
21678;DHT22;11000;50.360;7.582;2022-11-03T12:06:58;12.90;99.90
21678;DHT22;11000;50.360;7.582;2022-11-03T12:09:21;12.90;99.90
21678;DHT22;11000;50.360;7.582;2022-11-03T12:11:52;13.00;99.90
21678;DHT22;11000;50.360;7.582;2022-11-03T12:14:32;12.90;99.90
21678;DHT22;11000;50.360;7.582;2022-11-03T12:16:54;12.90;99.90
21678;DHT22;11000;50.360;7.582;2022-11-03T12:21:54;12.90;99.90
21678;DHT22;11000;50.360;7.582;2022-11-03T12:26:51;12.90;99.90
21678;DHT22;11000;50.360;7.582;2022-11-03T12:29:12;12.90;99.90
21678;DHT22;11000;50.360;7.582;2022-11-03T12:31:32;13.00;99.90
21678;DHT22;11000;50.360;7.582;2022-11-03T12:33:53;12.80;99.90
21678;DHT22;11000;50.360;7.582;2022-11-03T12:36:14;12.80;99.90
21678;DHT22;11000;50.360;7.582;2022-11-03T12:38:35;12.80;99.90
21678;DHT22;11000;50.360;7.582;2022-11-03T12:40:56;12.80;99.90
21678;DHT22;11000;50.360;7.582;2022-11-03T12:43:16;12.90;99.90
21678;DHT22;11000;50.360;7.582;2022-11-03T12:45:37;12.90;99.90
21678;DHT22;11000;50.360;7.582;2022-11-03T12:47:57;12.90;99.90
21678;DHT22;11000;50.360;7.582;2022-11-03T12:50:18;12.90;99.90
21678;DHT22;11000;50.360;7.582;2022-11-03T12:52:38;12.90;99.90
21678;DHT22;11000;50.360;7.582;2022-11-03T12:54:59;12.90;99.90
21678;DHT22;11000;50.360;7.582;2022-11-03T12:57:19;12.80;99.90
21678;DHT22;11000;50.360;7.582;2022-11-03T12:59:40;12.80;99.90
21678;DHT22;11000;50.360;7.582;2022-11-03T13:02:01;12.70;99.90
21678;DHT22;11000;50.360;7.582;2022-11-03T13:04:21;12.80;99.90
21678;DHT22;11000;50.360;7.582;2022-11-03T13:06:42;12.70;99.90
21678;DHT22;11000;50.360;7.582;2022-11-03T13:09:03;12.70;99.90
21678;DHT22;11000;50.360;7.582;2022-11-03T13:11:23;12.70;99.90
21678;DHT22;11000;50.360;7.582;2022-11-03T13:14:03;12.60;99.90
21678;DHT22;11000;50.360;7.582;2022-11-03T13:16:25;12.60;99.90
21678;DHT22;11000;50.360;7.582;2022-11-03T13:18:46;12.70;99.90
21678;DHT22;11000;50.360;7.582;2022-11-03T13:21:06;12.70;99.90
21678;DHT22;11000;50.360;7.582;2022-11-03T13:23:27;12.70;99.90
21678;DHT22;11000;50.360;7.582;2022-11-03T13:25:47;12.70;99.90
21678;DHT22;11000;50.360;7.582;2022-11-03T13:28:08;12.70;99.90
21678;DHT22;11000;50.360;7.582;2022-11-03T13:30:30;12.70;99.90
21678;DHT22;11000;50.360;7.582;2022-11-03T13:32:51;12.70;99.90
21678;DHT22;11000;50.360;7.582;2022-11-03T13:35:12;12.70;99.90
21678;DHT22;11000;50.360;7.582;2022-11-03T13:37:33;12.80;99.90
21678;DHT22;11000;50.360;7.582;2022-11-03T13:39:53;12.80;99.90
21678;DHT22;11000;50.360;7.582;2022-11-03T13:42:14;12.80;99.90
21678;DHT22;11000;50.360;7.582;2022-11-03T13:44:35;12.80;99.90
21678;DHT22;11000;50.360;7.582;2022-11-03T13:46:55;12.90;99.90
21678;DHT22;11000;50.360;7.582;2022-11-03T13:49:16;12.80;99.90
21678;DHT22;11000;50.360;7.582;2022-11-03T13:51:36;12.80;99.90
21678;DHT22;11000;50.360;7.582;2022-11-03T13:53:57;12.80;99.90
21678;DHT22;11000;50.360;7.582;2022-11-03T13:56:17;12.80;99.90
21678;DHT22;11000;50.360;7.582;2022-11-03T13:58:38;12.90;99.90
21678;DHT22;11000;50.360;7.582;2022-11-03T14:00:58;12.90;99.90
21678;DHT22;11000;50.360;7.582;2022-11-03T14:03:19;12.90;99.90
21678;DHT22;11000;50.360;7.582;2022-11-03T14:05:39;12.90;99.90
21678;DHT22;11000;50.360;7.582;2022-11-03T14:08:00;12.90;99.90
21678;DHT22;11000;50.360;7.582;2022-11-03T14:10:20;12.90;99.90
21678;DHT22;11000;50.360;7.582;2022-11-03T14:12:41;12.80;99.90
21678;DHT22;11000;50.360;7.582;2022-11-03T14:15:04;12.80;99.90
21678;DHT22;11000;50.360;7.582;2022-11-03T14:17:25;12.80;99.90
21678;DHT22;11000;50.360;7.582;2022-11-03T14:19:46;12.80;99.90
21678;DHT22;11000;50.360;7.582;2022-11-03T14:22:06;12.90;99.90
21678;DHT22;11000;50.360;7.582;2022-11-03T14:24:27;12.90;99.90
21678;DHT22;11000;50.360;7.582;2022-11-03T14:26:47;12.90;99.90
21678;DHT22;11000;50.360;7.582;2022-11-03T14:29:09;12.90;99.90
21678;DHT22;11000;50.360;7.582;2022-11-03T14:31:30;12.90;99.90
21678;DHT22;11000;50.360;7.582;2022-11-03T14:33:51;12.90;99.90
21678;DHT22;11000;50.360;7.582;2022-11-03T14:36:12;13.00;99.90
21678;DHT22;11000;50.360;7.582;2022-11-03T14:38:32;12.90;99.90
21678;DHT22;11000;50.360;7.582;2022-11-03T14:40:53;12.90;99.90
21678;DHT22;11000;50.360;7.582;2022-11-03T14:43:33;12.90;99.90
21678;DHT22;11000;50.360;7.582;2022-11-03T14:45:53;12.80;99.90
21678;DHT22;11000;50.360;7.582;2022-11-03T14:48:14;12.80;99.90
21678;DHT22;11000;50.360;7.582;2022-11-03T14:50:34;12.80;99.90
21678;DHT22;11000;50.360;7.582;2022-11-03T14:52:56;12.70;99.90
21678;DHT22;11000;50.360;7.582;2022-11-03T14:55:17;12.70;99.90
21678;DHT22;11000;50.360;7.582;2022-11-03T14:57:37;12.70;99.90
21678;DHT22;11000;50.360;7.582;2022-11-03T14:59:58;12.60;99.90
21678;DHT22;11000;50.360;7.582;2022-11-03T15:02:18;12.60;99.90
21678;DHT22;11000;50.360;7.582;2022-11-03T15:04:39;12.60;99.90
21678;DHT22;11000;50.360;7.582;2022-11-03T15:06:59;12.50;99.90
21678;DHT22;11000;50.360;7.582;2022-11-03T15:09:20;12.50;99.90
21678;DHT22;11000;50.360;7.582;2022-11-03T15:11:42;12.50;99.90
21678;DHT22;11000;50.360;7.582;2022-11-03T15:14:03;12.40;99.90
21678;DHT22;11000;50.360;7.582;2022-11-03T15:16:24;12.40;99.90
21678;DHT22;11000;50.360;7.582;2022-11-03T15:18:44;12.30;99.90
21678;DHT22;11000;50.360;7.582;2022-11-03T15:21:05;12.40;99.90
21678;DHT22;11000;50.360;7.582;2022-11-03T15:23:26;12.30;99.90
21678;DHT22;11000;50.360;7.582;2022-11-03T15:25:47;12.30;99.90
21678;DHT22;11000;50.360;7.582;2022-11-03T15:28:08;12.20;99.90
21678;DHT22;11000;50.360;7.582;2022-11-03T15:30:30;12.20;99.90
21678;DHT22;11000;50.360;7.582;2022-11-03T15:32:51;12.20;99.90
21678;DHT22;11000;50.360;7.582;2022-11-03T15:35:11;12.20;99.90
21678;DHT22;11000;50.360;7.582;2022-11-03T15:37:32;12.10;99.90
21678;DHT22;11000;50.360;7.582;2022-11-03T15:39:53;12.10;99.90
21678;DHT22;11000;50.360;7.582;2022-11-03T15:42:13;12.10;99.90
21678;DHT22;11000;50.360;7.582;2022-11-03T15:44:34;12.10;99.90
21678;DHT22;11000;50.360;7.582;2022-11-03T15:46:54;12.10;99.90
21678;DHT22;11000;50.360;7.582;2022-11-03T15:49:15;12.10;99.90
21678;DHT22;11000;50.360;7.582;2022-11-03T15:51:35;12.10;99.90
21678;DHT22;11000;50.360;7.582;2022-11-03T15:53:56;12.10;99.90
21678;DHT22;11000;50.360;7.582;2022-11-03T15:56:16;12.10;99.90
21678;DHT22;11000;50.360;7.582;2022-11-03T15:58:43;12.10;99.90
21678;DHT22;11000;50.360;7.582;2022-11-03T16:01:04;12.10;99.90
21678;DHT22;11000;50.360;7.582;2022-11-03T16:03:24;12.10;99.90
21678;DHT22;11000;50.360;7.582;2022-11-03T16:05:45;12.00;99.90